To NAV CANADA Home Page Login to a new session Search on AWWS site Feedback and Comments Disclaimer Vers la page française équivalente Tips FAQ What's new on the site To the Forecasts and Observations / NOTAM section To "File a Flight Plan" website Publications and other links Update of the User's profile FIC Telephone Numbers My Weather Data Folder Route Weather Data Regional Weather Data Local Weather Data To the Forecasts and Observations / NOTAM section
Request Generated 05/27/2016 at 12:11:10 UTC . Weather information available at that time is displayed.

METAR/TAF

OTTAWA/GATINEAU/QC    

METAR CYND 271200Z 09005KT 15SM FEW100 BKN240 17/11 A2995 RMK AC2CI5
SLP144 DENSITY ALT 400FT=
METAR CYND 271100Z 04006KT 15SM FEW025 BKN240 16/10 A2995 RMK CU1CI7
CU TR PRESRR SLP144 DENSITY ALT 300FT=
LWIS CYND 271000Z AUTO VRB02KT 14/09 A2992=

*** REMARK        : Forecast period has ended; this was the last TAF issued
*** REMARQUE : La période de prévision est échue; ceci était le dernier TAF qui a été émis
TAF AMD CYND 262102Z 2621/2701 08010KT P6SM FEW050 SCT250
FM262200 13005KT P6SM BKN070 TEMPO 2622/2701 P6SM -SHRA
BECMG 2623/2701 VRB03KT
RMK NXT FCST WILL BE ISSUED AT 271245Z=
Your time UTC time
Weather data provided by Environment Canada and NAV CANADA